Terminal Aerodrome Forecast
Issued by NWS Springfield, MO

Home | Current Version | Previous Version | Text Only | Print | Product List | Glossary On
Versions: 1 2 3 4 5 6 7 8 9 10 11 12 13 14
991
FTUS43 KSGF 212321
TAFSGF
TAF
KSGF 212321Z 2200/2224 06017G23KT P6SM VCSH FEW035 OVC050
     FM220300 06011KT P6SM VCSH OVC060
     FM220700 09011KT P6SM OVC070=

USA.gov is the U.S. government's official web portal to all federal, state and local government web resources and services.